createdAt,value
2022-09-01T00:00:40.843Z,1
2022-09-01T00:02:37.208Z,1
2022-09-01T00:04:36.970Z,1
2022-09-01T00:06:36.978Z,1
2022-09-01T00:08:40.832Z,1
2022-09-01T00:10:37.096Z,1
2022-09-01T00:12:43.750Z,1
2022-09-01T00:14:40.963Z,1
2022-09-01T00:16:36.853Z,1
2022-09-01T00:18:37.237Z,1
2022-09-01T00:20:43.932Z,1
2022-09-01T00:22:36.945Z,1
2022-09-01T00:24:40.452Z,1
2022-09-01T00:26:40.956Z,1
2022-09-01T00:28:40.437Z,1
2022-09-01T00:30:36.919Z,1
2022-09-01T00:32:36.792Z,1
2022-09-01T00:34:36.791Z,1
2022-09-01T00:36:37.057Z,1
2022-09-01T00:38:37.079Z,1
2022-09-01T00:40:36.913Z,1
2022-09-01T00:42:37.059Z,1
2022-09-01T00:44:36.936Z,1
2022-09-01T00:46:37.087Z,1
2022-09-01T00:48:36.789Z,1
2022-09-01T00:50:37.039Z,1
2022-09-01T00:52:37.039Z,1
2022-09-01T00:54:40.410Z,1
2022-09-01T00:56:36.783Z,1
2022-09-01T00:58:36.810Z,1
2022-09-01T01:00:36.786Z,1
2022-09-01T01:02:37.005Z,1
2022-09-01T01:04:37.079Z,1
2022-09-01T01:06:36.923Z,1
2022-09-01T01:08:36.917Z,1
2022-09-01T01:10:40.271Z,1
2022-09-01T01:12:36.788Z,1
2022-09-01T01:14:37.431Z,1
2022-09-01T01:16:37.094Z,1
2022-09-01T01:18:40.812Z,1
2022-09-01T01:20:40.065Z,1
2022-09-01T01:22:36.854Z,1
2022-09-01T01:24:40.036Z,1
2022-09-01T01:26:40.848Z,1
2022-09-01T01:28:36.806Z,1
2022-09-01T01:30:36.860Z,1
2022-09-01T01:32:36.782Z,1
2022-09-01T01:34:36.873Z,1
2022-09-01T01:36:37.222Z,1
2022-09-01T01:38:36.787Z,1
2022-09-01T01:40:37.678Z,1
2022-09-01T01:42:40.475Z,1
2022-09-01T01:44:36.794Z,1
2022-09-01T01:46:36.899Z,1
2022-09-01T01:48:40.431Z,1
2022-09-01T01:50:37.153Z,1
2022-09-01T01:52:40.291Z,1
2022-09-01T01:54:37.009Z,1
2022-09-01T01:56:36.782Z,1
2022-09-01T01:58:37.057Z,1
2022-09-01T02:00:43.658Z,1
2022-09-01T02:02:36.836Z,1
2022-09-01T02:04:39.947Z,1
2022-09-01T02:06:36.869Z,1
2022-09-01T02:08:36.872Z,1
2022-09-01T02:10:41.101Z,1
2022-09-01T02:12:37.207Z,1
2022-09-01T02:14:37.143Z,1
2022-09-01T02:16:36.929Z,1
2022-09-01T02:18:39.969Z,1
2022-09-01T02:20:36.979Z,1
2022-09-01T02:22:36.872Z,1
2022-09-01T02:24:36.926Z,1
2022-09-01T02:26:39.947Z,1
2022-09-01T02:28:36.862Z,1
2022-09-01T02:30:37.123Z,1
2022-09-01T02:32:36.767Z,1
2022-09-01T02:34:37.160Z,1
2022-09-01T02:36:43.709Z,1
2022-09-01T02:38:37.189Z,1
2022-09-01T02:40:40.354Z,1
2022-09-01T02:42:40.264Z,1
2022-09-01T02:44:41.361Z,1
2022-09-01T02:46:37.127Z,1
2022-09-01T02:48:36.787Z,1
2022-09-01T02:50:36.986Z,1
2022-09-01T02:52:40.405Z,1
2022-09-01T02:54:36.788Z,1
2022-09-01T02:56:40.764Z,1
2022-09-01T02:58:36.797Z,1
2022-09-01T03:00:44.216Z,1
2022-09-01T03:02:37.110Z,1
2022-09-01T03:04:36.992Z,1
2022-09-01T03:06:37.447Z,1
2022-09-01T03:08:43.124Z,1
2022-09-01T03:10:36.816Z,1
2022-09-01T03:12:36.985Z,1
2022-09-01T03:14:37.812Z,1
2022-09-01T03:16:36.986Z,1
2022-09-01T03:18:36.813Z,1
2022-09-01T03:20:37.081Z,1
2022-09-01T03:22:40.440Z,1
2022-09-01T03:24:36.803Z,1
2022-09-01T03:26:37.031Z,1
2022-09-01T03:28:37.241Z,1
2022-09-01T03:30:43.966Z,1
2022-09-01T03:32:36.802Z,1
2022-09-01T03:34:36.940Z,1
2022-09-01T03:36:36.799Z,1
2022-09-01T03:38:40.242Z,1
2022-09-01T03:40:43.716Z,1
2022-09-01T03:42:36.791Z,1
2022-09-01T03:44:40.202Z,1
2022-09-01T03:46:40.021Z,1
2022-09-01T03:48:36.814Z,1
2022-09-01T03:50:36.834Z,0
2022-09-01T03:52:37.008Z,0
2022-09-01T03:54:40.926Z,0
2022-09-01T03:56:36.822Z,0
2022-09-01T03:58:36.912Z,0
2022-09-01T04:00:36.899Z,0.2
2022-09-01T04:02:37.307Z,0.3
2022-09-01T04:04:44.095Z,0.4
2022-09-01T04:06:36.801Z,0.6
2022-09-01T04:08:37.175Z,0.8
2022-09-01T04:10:38.590Z,1.2
2022-09-01T04:12:36.934Z,1.6
2022-09-01T04:14:40.411Z,2.2
2022-09-01T04:16:40.291Z,3.7
2022-09-01T04:18:44.049Z,5.8
2022-09-01T04:20:36.910Z,8.2
2022-09-01T04:22:36.801Z,12.2
2022-09-01T04:24:36.788Z,14.9
2022-09-01T04:26:37.052Z,18.2
2022-09-01T04:28:36.800Z,23.3
2022-09-01T04:30:37.039Z,27.1
2022-09-01T04:32:37.039Z,38.5
2022-09-01T04:34:36.820Z,49.4
2022-09-01T04:36:36.806Z,54.6
2022-09-01T04:38:36.962Z,66.7
2022-09-01T04:40:40.951Z,73.7
2022-09-01T04:42:36.963Z,81.5
2022-09-01T04:44:40.856Z,94.6
2022-09-01T04:46:35.272Z,115.6
2022-09-01T04:48:37.042Z,121.5
2022-09-01T04:50:36.825Z,156
2022-09-01T04:52:37.072Z,190.6
2022-09-01T04:54:37.146Z,210.6
2022-09-01T04:56:36.836Z,221.4
2022-09-01T04:58:37.048Z,221.4
2022-09-01T05:00:40.190Z,270.4
2022-09-01T05:02:36.867Z,284.3
2022-09-01T05:04:36.853Z,314.2
2022-09-01T05:06:37.025Z,330.3
2022-09-01T05:08:34.940Z,383.8
2022-09-01T05:10:37.288Z,518
2022-09-01T05:12:36.808Z,572.5
2022-09-01T05:14:36.989Z,632.7
2022-09-01T05:16:41.074Z,735.1
2022-09-01T05:18:40.132Z,735.1
2022-09-01T05:20:36.850Z,735.1
2022-09-01T05:22:40.004Z,812.4
2022-09-01T05:24:41.381Z,812.4
2022-09-01T05:26:43.941Z,772.8
2022-09-01T05:28:36.823Z,772.8
2022-09-01T05:30:36.712Z,854.1
2022-09-01T05:32:37.066Z,943.9
2022-09-01T05:34:36.739Z,1152.9
2022-09-01T05:36:44.175Z,1212
2022-09-01T05:38:44.261Z,1274.1
2022-09-01T05:40:37.053Z,1408.1
2022-09-01T05:42:37.315Z,1480.3
2022-09-01T05:44:36.802Z,1636
2022-09-01T05:46:36.885Z,1719.9
2022-09-01T05:48:40.865Z,1900.7
2022-09-01T05:50:36.943Z,2100.6
2022-09-01T05:52:36.876Z,2321.6
2022-09-01T05:54:36.957Z,2565.7
2022-09-01T05:56:43.472Z,2981
2022-09-01T06:00:36.819Z,3463.4
2022-09-01T06:02:40.426Z,3827.6
2022-09-01T06:04:44.002Z,3641
2022-09-01T06:06:44.055Z,3463.4
2022-09-01T06:08:37.210Z,3133.8
2022-09-01T06:10:36.831Z,2697.3
2022-09-01T06:12:37.165Z,2440.6
2022-09-01T06:14:37.118Z,3294.5
2022-09-01T06:16:36.897Z,3827.6
2022-09-01T06:18:36.974Z,3641
2022-09-01T06:20:36.852Z,3133.8
2022-09-01T06:22:37.593Z,2835.6
2022-09-01T06:24:37.136Z,2565.7
2022-09-01T06:26:36.860Z,2100.6
2022-09-01T06:28:37.083Z,2100.6
2022-09-01T06:30:40.735Z,2440.6
2022-09-01T06:32:37.207Z,3641
2022-09-01T06:34:36.971Z,4023.9
2022-09-01T06:36:37.096Z,5166.8
2022-09-01T06:38:40.899Z,3827.6
2022-09-01T06:40:44.038Z,4023.9
2022-09-01T06:42:37.160Z,3827.6
2022-09-01T06:44:40.553Z,3641
2022-09-01T06:46:36.868Z,3827.6
2022-09-01T06:48:44.147Z,3641
2022-09-01T06:54:36.825Z,3641
2022-09-01T06:58:36.847Z,6974.4
2022-09-01T07:00:36.857Z,7332
2022-09-01T07:02:37.291Z,6634.2
2022-09-01T07:04:36.776Z,4230.2
2022-09-01T07:12:36.797Z,2697.3
2022-09-01T07:16:41.794Z,1808
2022-09-01T07:18:36.917Z,1480.3
2022-09-01T07:20:37.731Z,1480.3
2022-09-01T07:22:38.504Z,1556.2
2022-09-01T07:24:40.891Z,1719.9
2022-09-01T07:26:47.363Z,1998.2
2022-09-01T07:28:40.533Z,2440.6
2022-09-01T07:30:36.853Z,2981
2022-09-01T07:32:47.422Z,5431.7
2022-09-01T07:34:40.430Z,7332
2022-09-01T07:37:15.466Z,6310.7
2022-09-01T07:39:48.354Z,5431.7
2022-09-01T07:42:58.338Z,3294.5
2022-09-01T07:44:36.840Z,2835.6
2022-09-01T07:46:37.314Z,3133.8
2022-09-01T07:49:01.750Z,2565.7
2022-09-01T07:50:40.685Z,2981
2022-09-01T07:52:43.969Z,3827.6
2022-09-01T07:54:43.249Z,4023.9
2022-09-01T07:56:44.149Z,4023.9
2022-09-01T07:58:36.843Z,4675.1
2022-09-01T08:00:36.846Z,4447.1
2022-09-01T08:02:37.392Z,4447.1
2022-09-01T08:04:36.996Z,5710.1
2022-09-01T08:06:38.574Z,6310.7
2022-09-01T08:08:37.255Z,6002.9
2022-09-01T08:10:40.392Z,6002.9
2022-09-01T08:12:37.001Z,6310.7
2022-09-01T08:14:36.822Z,6310.7
2022-09-01T08:16:40.273Z,5166.8
2022-09-01T08:18:48.990Z,4447.1
2022-09-01T08:20:37.076Z,4230.2
2022-09-01T08:22:40.448Z,4023.9
2022-09-01T08:24:39.959Z,4447.1
2022-09-01T08:26:36.930Z,4447.1
2022-09-01T08:28:45.830Z,4447.1
2022-09-01T08:30:35.038Z,4023.9
2022-09-01T08:32:36.928Z,4023.9
2022-09-01T08:34:37.214Z,4447.1
2022-09-01T08:36:37.131Z,5431.7
2022-09-01T08:38:36.857Z,6002.9
2022-09-01T08:40:37.300Z,5431.7
2022-09-01T08:42:37.025Z,4914.8
2022-09-01T08:44:36.839Z,4675.1
2022-09-01T08:46:37.135Z,4447.1
2022-09-01T08:49:23.502Z,4023.9
2022-09-01T08:50:37.062Z,3641
2022-09-01T08:52:37.266Z,4023.9
2022-09-01T08:54:40.400Z,4447.1
2022-09-01T08:56:40.107Z,5166.8
2022-09-01T08:58:36.923Z,5431.7
2022-09-01T09:00:40.015Z,5710.1
2022-09-01T09:02:40.189Z,6002.9
2022-09-01T09:04:37.032Z,6002.9
2022-09-01T09:06:40.246Z,6310.7
2022-09-01T09:08:40.403Z,6310.7
2022-09-01T09:10:40.424Z,6634.2
2022-09-01T09:12:48.848Z,6974.4
2022-09-01T09:14:40.421Z,6634.2
2022-09-01T09:16:37.254Z,6974.4
2022-09-01T09:18:38.887Z,6974.4
2022-09-01T09:20:35.228Z,6634.2
2022-09-01T09:22:37.006Z,6310.7
2022-09-01T09:24:40.463Z,5710.1
2022-09-01T09:28:36.834Z,4914.8
2022-09-01T09:30:36.858Z,5431.7
2022-09-01T09:33:09.634Z,5710.1
2022-09-01T09:34:36.839Z,6002.9
2022-09-01T09:36:37.048Z,5431.7
2022-09-01T09:38:40.085Z,5166.8
2022-09-01T09:40:53.999Z,5431.7
2022-09-01T09:42:44.050Z,5431.7
2022-09-01T09:44:37.108Z,5431.7
2022-09-01T09:46:40.526Z,5431.7
2022-09-01T09:48:37.125Z,6002.9
2022-09-01T09:50:38.091Z,6634.2
2022-09-01T09:52:37.980Z,6634.2
2022-09-01T09:54:36.951Z,6002.9
2022-09-01T09:56:40.421Z,6310.7
2022-09-01T10:00:36.856Z,6002.9
2022-09-01T10:04:37.119Z,7332
2022-09-01T10:06:37.071Z,8518.5
2022-09-01T10:08:36.878Z,9414.4
2022-09-01T10:10:37.110Z,9897.1
2022-09-01T10:12:37.153Z,8955.3
2022-09-01T10:14:51.890Z,8955.3
2022-09-01T10:16:40.600Z,8518.5
2022-09-01T10:18:43.994Z,9414.4
2022-09-01T10:20:36.882Z,10404.6
2022-09-01T10:22:36.957Z,11498.8
2022-09-01T10:24:38.655Z,12088.4
2022-09-01T10:26:40.078Z,11498.8
2022-09-01T10:28:37.139Z,9897.1
2022-09-01T10:30:44.093Z,8103.1
2022-09-01T10:32:38.344Z,6974.4
2022-09-01T10:34:37.033Z,6634.2
2022-09-01T10:36:37.659Z,8518.5
2022-09-01T10:38:40.425Z,9414.4
2022-09-01T10:40:38.174Z,8518.5
2022-09-01T10:42:44.873Z,7332
2022-09-01T10:44:37.862Z,7332
2022-09-01T10:46:40.642Z,7707.9
2022-09-01T10:50:37.217Z,8955.3
2022-09-01T10:52:37.202Z,9414.4
2022-09-01T10:54:38.577Z,8955.3
2022-09-01T10:56:44.221Z,7707.9
2022-09-01T11:00:37.280Z,6002.9
2022-09-01T11:04:44.222Z,4230.2
2022-09-01T11:08:36.895Z,3294.5
2022-09-01T11:10:36.882Z,2981
2022-09-01T11:12:40.553Z,2981
2022-09-01T11:14:38.229Z,2835.6
2022-09-01T11:16:47.860Z,2981
2022-09-01T11:18:37.082Z,3294.5
2022-09-01T11:20:36.974Z,3641
2022-09-01T11:22:38.058Z,4023.9
2022-09-01T11:26:37.025Z,4447.1
2022-09-01T11:28:38.195Z,4914.8
2022-09-01T11:30:41.508Z,5710.1
2022-09-01T11:32:36.878Z,6310.7
2022-09-01T11:34:37.479Z,6974.4
2022-09-01T11:36:37.480Z,7332
2022-09-01T11:38:37.240Z,8103.1
2022-09-01T11:40:40.315Z,8955.3
2022-09-01T11:42:40.237Z,9414.4
2022-09-01T11:44:37.141Z,10404.6
2022-09-01T11:46:36.873Z,10938
2022-09-01T11:48:37.000Z,12088.4
2022-09-01T11:50:36.969Z,15521.8
2022-09-01T11:52:36.843Z,12708.2
2022-09-01T11:54:37.136Z,12708.2
2022-09-01T11:56:37.267Z,11498.8
2022-09-01T11:58:37.120Z,11498.8
2022-09-01T12:00:36.880Z,12088.4
2022-09-01T12:02:40.500Z,12708.2
2022-09-01T12:04:36.954Z,12708.2
2022-09-01T12:06:36.844Z,12708.2
2022-09-01T12:08:36.855Z,13359.7
2022-09-01T12:10:36.895Z,13359.7
2022-09-01T12:12:36.999Z,13359.7
2022-09-01T12:14:55.284Z,13359.7
2022-09-01T12:16:43.738Z,12088.4
2022-09-01T12:18:36.902Z,12088.4
2022-09-01T12:20:40.931Z,11498.8
2022-09-01T12:22:36.782Z,10938
2022-09-01T12:24:36.881Z,10938
2022-09-01T12:26:40.406Z,10404.6
2022-09-01T12:28:36.877Z,10404.6
2022-09-01T12:30:36.860Z,10404.6
2022-09-01T12:32:36.850Z,10938
2022-09-01T12:34:36.848Z,10938
2022-09-01T12:36:40.887Z,10404.6
2022-09-01T12:40:36.938Z,10938
2022-09-01T12:42:41.237Z,10938
2022-09-01T12:44:39.518Z,10938
2022-09-01T12:46:36.845Z,10938
2022-09-01T12:48:37.506Z,10938
2022-09-01T12:50:40.332Z,11498.8
2022-09-01T12:52:37.524Z,11498.8
2022-09-01T12:54:36.878Z,12088.4
2022-09-01T12:56:40.049Z,12708.2
2022-09-01T12:58:36.898Z,12708.2
2022-09-01T13:00:37.039Z,14764.8
2022-09-01T13:02:40.363Z,13359.7
2022-09-01T13:04:40.455Z,13359.7
2022-09-01T13:06:40.332Z,12708.2
2022-09-01T13:08:37.633Z,12708.2
2022-09-01T13:10:37.070Z,11498.8
2022-09-01T13:12:40.209Z,10938
2022-09-01T13:14:36.872Z,9897.1
2022-09-01T13:16:37.172Z,9897.1
2022-09-01T13:20:37.287Z,9897.1
2022-09-01T13:22:44.014Z,10938
2022-09-01T13:24:38.884Z,11498.8
2022-09-01T13:26:41.147Z,12088.4
2022-09-01T13:28:38.853Z,12088.4
2022-09-01T13:30:36.894Z,12708.2
2022-09-01T13:32:37.121Z,13359.7
2022-09-01T13:34:40.231Z,12708.2
2022-09-01T13:38:34.693Z,12088.4
2022-09-01T13:40:36.882Z,13359.7
2022-09-01T13:42:36.968Z,12708.2
2022-09-01T13:44:37.010Z,12088.4
2022-09-01T13:46:58.924Z,10938
2022-09-01T13:49:02.929Z,10404.6
2022-09-01T13:52:36.870Z,10938
2022-09-01T13:54:36.898Z,10404.6
2022-09-01T13:56:36.882Z,10404.6
2022-09-01T14:00:36.911Z,10404.6
2022-09-01T14:02:36.924Z,9897.1
2022-09-01T14:04:41.033Z,8955.3
2022-09-01T14:06:36.972Z,9897.1
2022-09-01T14:08:36.913Z,8955.3
2022-09-01T14:10:37.174Z,6634.2
2022-09-01T14:12:37.062Z,8103.1
2022-09-01T14:16:37.017Z,7707.9
2022-09-01T14:18:42.611Z,7332
2022-09-01T14:20:37.259Z,7332
2022-09-01T14:22:38.589Z,4447.1
2022-09-01T14:24:35.385Z,6974.4
2022-09-01T14:26:40.087Z,4675.1
2022-09-01T14:28:36.868Z,6634.2
2022-09-01T14:30:44.181Z,6310.7
2022-09-01T14:32:45.668Z,6634.2
2022-09-01T14:36:36.863Z,6634.2
2022-09-01T14:38:40.469Z,5710.1
2022-09-01T14:40:37.081Z,5710.1
2022-09-01T14:42:37.017Z,4023.9
2022-09-01T14:44:38.613Z,4447.1
2022-09-01T14:46:44.104Z,3827.6
2022-09-01T14:48:43.717Z,6002.9
2022-09-01T14:50:38.507Z,5710.1
2022-09-01T14:52:40.205Z,5710.1
2022-09-01T14:54:36.966Z,5710.1
2022-09-01T14:56:37.121Z,5710.1
2022-09-01T14:58:37.095Z,5431.7
2022-09-01T15:00:40.589Z,5710.1
2022-09-01T15:02:40.521Z,5710.1
2022-09-01T15:04:38.776Z,5166.8
2022-09-01T15:06:38.143Z,5710.1
2022-09-01T15:08:37.010Z,5431.7
2022-09-01T15:10:38.796Z,5431.7
2022-09-01T15:12:40.446Z,5166.8
2022-09-01T15:14:36.863Z,5431.7
2022-09-01T15:16:37.151Z,5166.8
2022-09-01T15:18:37.178Z,5166.8
2022-09-01T15:20:37.269Z,2981
2022-09-01T15:22:44.133Z,3463.4
2022-09-01T15:24:36.890Z,3827.6
2022-09-01T15:26:36.885Z,2981
2022-09-01T15:28:39.123Z,4914.8
2022-09-01T15:30:37.153Z,4914.8
2022-09-01T15:32:37.232Z,4914.8
2022-09-01T15:34:37.207Z,4914.8
2022-09-01T15:36:40.932Z,4675.1
2022-09-01T15:38:36.983Z,4675.1
2022-09-01T15:40:36.985Z,4675.1
2022-09-01T15:42:35.086Z,4447.1
2022-09-01T15:44:36.887Z,4675.1
2022-09-01T15:46:37.173Z,4675.1
2022-09-01T15:48:36.883Z,4447.1
2022-09-01T15:50:37.093Z,3827.6
2022-09-01T15:52:37.180Z,4230.2
2022-09-01T15:54:37.290Z,4230.2
2022-09-01T15:56:37.081Z,4023.9
2022-09-01T15:58:50.877Z,4023.9
2022-09-01T16:00:37.161Z,4023.9
2022-09-01T16:02:37.623Z,4023.9
2022-09-01T16:04:37.188Z,3133.8
2022-09-01T16:06:40.512Z,3641
2022-09-01T16:08:44.245Z,3641
2022-09-01T16:10:38.458Z,3641
2022-09-01T16:12:40.510Z,3641
2022-09-01T16:14:37.128Z,3463.4
2022-09-01T16:16:40.116Z,3463.4
2022-09-01T16:18:41.001Z,3294.5
2022-09-01T16:20:43.573Z,2981
2022-09-01T16:22:36.984Z,3294.5
2022-09-01T16:26:37.129Z,3133.8
2022-09-01T16:28:37.185Z,2321.6
2022-09-01T16:32:37.207Z,1998.2
2022-09-01T16:34:36.890Z,1900.7
2022-09-01T16:38:36.934Z,2321.6
2022-09-01T16:40:36.986Z,1998.2
2022-09-01T16:42:41.345Z,1998.2
2022-09-01T16:44:36.891Z,1900.7
2022-09-01T16:46:42.736Z,1998.2
2022-09-01T16:48:36.872Z,1998.2
2022-09-01T16:50:38.621Z,1808
2022-09-01T16:52:37.312Z,1900.7
2022-09-01T16:54:44.078Z,2100.6
2022-09-01T16:56:40.214Z,1480.3
2022-09-01T17:00:44.247Z,1408.1
2022-09-01T17:02:37.131Z,1339.4
2022-09-01T17:04:36.913Z,1212
2022-09-01T17:06:40.450Z,1152.9
2022-09-01T17:08:38.602Z,1096.6
2022-09-01T17:10:37.138Z,1043.1
2022-09-01T17:12:36.894Z,992.3
2022-09-01T17:14:38.145Z,943.9
2022-09-01T17:16:37.243Z,897.8
2022-09-01T17:18:36.935Z,854.1
2022-09-01T17:20:40.526Z,772.8
2022-09-01T17:22:37.323Z,735.1
2022-09-01T17:24:36.922Z,699.2
2022-09-01T17:26:37.463Z,665.1
2022-09-01T17:28:36.916Z,632.7
2022-09-01T17:30:37.003Z,572.5
2022-09-01T17:32:36.937Z,518
2022-09-01T17:34:37.228Z,468.7
2022-09-01T17:36:37.019Z,445.9
2022-09-01T17:38:36.892Z,424.1
2022-09-01T17:40:36.943Z,383.8
2022-09-01T17:42:40.548Z,347.2
2022-09-01T17:44:37.257Z,314.2
2022-09-01T17:46:44.190Z,270.4
2022-09-01T17:48:37.205Z,232.8
2022-09-01T17:50:37.255Z,200.3
2022-09-01T17:52:40.513Z,172.4
2022-09-01T17:54:40.106Z,141.2
2022-09-01T17:56:40.283Z,115.6
2022-09-01T17:58:36.941Z,99.5
2022-09-01T18:00:40.332Z,81.5
2022-09-01T18:02:40.134Z,63.4
2022-09-01T18:04:37.017Z,51.9
2022-09-01T18:06:44.316Z,38.5
2022-09-01T18:08:41.016Z,30
2022-09-01T18:10:38.552Z,22.2
2022-09-01T18:12:37.075Z,16.4
2022-09-01T18:14:40.987Z,11.6
2022-09-01T18:16:37.018Z,8.2
2022-09-01T18:18:44.114Z,5.5
2022-09-01T18:20:37.184Z,3.9
2022-09-01T18:22:37.272Z,2.6
2022-09-01T18:24:37.303Z,1.8
2022-09-01T18:26:36.934Z,1.2
2022-09-01T18:28:41.155Z,0.8
2022-09-01T18:30:52.509Z,0.5
2022-09-01T18:32:37.031Z,0.4
2022-09-01T18:34:37.474Z,0.3
2022-09-01T18:36:46.089Z,0.2
2022-09-01T18:38:36.939Z,0.2
2022-09-01T18:40:37.263Z,0.1
2022-09-01T18:42:37.027Z,0
2022-09-01T18:44:37.096Z,0
2022-09-01T18:46:41.054Z,0
2022-09-01T18:48:40.561Z,0
2022-09-01T18:50:41.449Z,0
2022-09-01T18:52:44.134Z,1
2022-09-01T18:54:44.193Z,1
2022-09-01T18:56:37.746Z,1
2022-09-01T18:58:36.953Z,1
2022-09-01T19:00:36.933Z,1
2022-09-01T19:02:37.222Z,1
2022-09-01T19:04:34.775Z,1
2022-09-01T19:06:41.130Z,1
2022-09-01T19:08:39.142Z,1
2022-09-01T19:10:37.230Z,1
2022-09-01T19:12:42.800Z,1
2022-09-01T19:14:40.084Z,1
2022-09-01T19:16:36.922Z,1
2022-09-01T19:18:41.059Z,1
2022-09-01T19:20:36.933Z,1
2022-09-01T19:22:36.925Z,1
2022-09-01T19:24:36.922Z,1
2022-09-01T19:26:37.092Z,1
2022-09-01T19:28:36.908Z,1
2022-09-01T19:30:37.086Z,1
2022-09-01T19:32:37.182Z,1
2022-09-01T19:34:37.254Z,1
2022-09-01T19:36:37.135Z,1
2022-09-01T19:38:38.837Z,1
2022-09-01T19:40:42.616Z,1
2022-09-01T19:42:36.891Z,1
2022-09-01T19:44:36.926Z,1
2022-09-01T19:46:36.986Z,1
2022-09-01T19:48:37.300Z,1
2022-09-01T19:50:37.216Z,1
2022-09-01T19:52:40.359Z,1
2022-09-01T19:54:40.483Z,1
2022-09-01T19:56:36.988Z,1
2022-09-01T19:58:40.942Z,1
2022-09-01T20:00:36.916Z,1
2022-09-01T20:02:37.210Z,1
2022-09-01T20:04:37.153Z,1
2022-09-01T20:10:44.162Z,1
2022-09-01T20:12:37.288Z,1
2022-09-01T20:14:40.104Z,1
2022-09-01T20:16:37.149Z,1
2022-09-01T20:18:36.916Z,1
2022-09-01T20:20:36.913Z,1
2022-09-01T20:24:37.170Z,1
2022-09-01T20:26:36.925Z,1
2022-09-01T20:28:37.083Z,1
2022-09-01T20:30:39.227Z,1
2022-09-01T20:32:37.133Z,1
2022-09-01T20:34:36.921Z,1
2022-09-01T20:36:40.583Z,1
2022-09-01T20:38:39.558Z,1
2022-09-01T20:40:37.113Z,1
2022-09-01T20:42:36.837Z,1
2022-09-01T20:44:37.205Z,1
2022-09-01T20:46:38.630Z,1
2022-09-01T20:48:37.184Z,1
2022-09-01T20:50:39.896Z,1
2022-09-01T20:52:37.308Z,1
2022-09-01T20:54:37.134Z,1
2022-09-01T20:56:39.926Z,1
2022-09-01T20:58:37.173Z,1
2022-09-01T21:00:36.933Z,1
2022-09-01T21:02:37.210Z,1
2022-09-01T21:04:40.629Z,1
2022-09-01T21:06:36.927Z,1
2022-09-01T21:08:36.830Z,1
2022-09-01T21:10:36.855Z,1
2022-09-01T21:12:40.930Z,1
2022-09-01T21:14:37.180Z,1
2022-09-01T21:16:38.284Z,1
2022-09-01T21:18:37.069Z,1
2022-09-01T21:20:34.276Z,1
2022-09-01T21:22:36.950Z,1
2022-09-01T21:24:37.023Z,1
2022-09-01T21:26:37.005Z,1
2022-09-01T21:28:48.083Z,1
2022-09-01T21:30:37.071Z,1
2022-09-01T21:32:36.958Z,1
2022-09-01T21:34:40.215Z,1
2022-09-01T21:36:40.382Z,1
2022-09-01T21:38:36.957Z,1
2022-09-01T21:40:37.377Z,1
2022-09-01T21:42:40.938Z,1
2022-09-01T21:44:40.536Z,1
2022-09-01T21:46:37.037Z,1
2022-09-01T21:48:44.138Z,1
2022-09-01T21:50:36.954Z,1
2022-09-01T21:52:40.325Z,1
2022-09-01T21:54:37.110Z,1
2022-09-01T21:56:37.067Z,1
2022-09-01T21:58:37.175Z,1
2022-09-01T22:00:43.707Z,1
2022-09-01T22:02:36.964Z,1
2022-09-01T22:04:41.058Z,1
2022-09-01T22:06:36.950Z,1
2022-09-01T22:08:37.182Z,1
2022-09-01T22:10:36.946Z,1
2022-09-01T22:12:34.336Z,1
2022-09-01T22:14:37.191Z,1
2022-09-01T22:16:37.010Z,1
2022-09-01T22:18:36.922Z,1
2022-09-01T22:20:36.956Z,1
2022-09-01T22:22:36.933Z,1
2022-09-01T22:24:40.459Z,1
2022-09-01T22:26:42.949Z,1
2022-09-01T22:28:39.008Z,1
2022-09-01T22:30:37.217Z,1
2022-09-01T22:32:36.944Z,1
2022-09-01T22:34:37.183Z,1
2022-09-01T22:36:37.039Z,1
2022-09-01T22:38:37.079Z,1
2022-09-01T22:40:43.809Z,1
2022-09-01T22:42:37.181Z,1
2022-09-01T22:44:36.913Z,1
2022-09-01T22:46:40.327Z,1
2022-09-01T22:48:36.942Z,1
2022-09-01T22:50:39.698Z,1
2022-09-01T22:52:34.907Z,1
2022-09-01T22:54:44.241Z,1
2022-09-01T22:56:40.543Z,1
2022-09-01T22:58:40.141Z,1
2022-09-01T23:00:36.925Z,1
2022-09-01T23:02:37.009Z,1
2022-09-01T23:04:36.975Z,1
2022-09-01T23:06:37.192Z,1
2022-09-01T23:08:37.137Z,1
2022-09-01T23:10:40.468Z,1
2022-09-01T23:12:37.199Z,1
2022-09-01T23:14:39.017Z,1
2022-09-01T23:16:37.042Z,1
2022-09-01T23:18:41.005Z,1
2022-09-01T23:20:36.849Z,1
2022-09-01T23:22:40.520Z,1
2022-09-01T23:24:37.064Z,1
2022-09-01T23:26:37.202Z,1
2022-09-01T23:28:38.619Z,1
2022-09-01T23:30:37.055Z,1
2022-09-01T23:32:36.980Z,1
2022-09-01T23:34:36.945Z,1
2022-09-01T23:36:38.754Z,1
2022-09-01T23:38:37.255Z,1
2022-09-01T23:40:37.304Z,1
2022-09-01T23:42:40.104Z,1
2022-09-01T23:44:36.951Z,1
2022-09-01T23:46:37.199Z,1
2022-09-01T23:48:36.948Z,1
2022-09-01T23:50:44.054Z,1
2022-09-01T23:52:37.258Z,1
2022-09-01T23:54:42.674Z,1
2022-09-01T23:56:37.165Z,1
2022-09-01T23:58:40.556Z,1
